Time;durP1;ratioP1;P1;durP2;ratioP2;P2;SDS_P1;SDS_P2;PMS_P1;PMS_P2;Temp;Humidity;BMP_temperature;BMP_pressure;BME280_temperature;BME280_humidity;BME280_pressure;Samples;Min_cycle;Max_cycle;Signal;HPM_P1;HPM_P2
2021/12/04 00:01:40;;;;;;;;;51.00;46.00;;;;;;;;5253234;28;9138;-68
2021/12/04 00:04:12;;;;;;;;;65.60;53.60;;;;;;;;5271426;28;8795;-68
2021/12/04 00:06:44;;;;;;;;;39.60;38.20;;;;;;;;5236672;28;8772;-70
2021/12/04 00:09:18;;;;;;;;;42.80;38.00;;;;;;;;5253243;28;9547;-67
2021/12/04 00:12:08;;;;;;;;;41.40;39.60;;;;;;;;5253056;28;9475;-70
2021/12/04 00:14:59;;;;;;;;;48.00;42.40;;;;;;;;5239113;28;8845;-70
2021/12/04 00:17:49;;;;;;;;;38.20;37.80;;;;;;;;5253028;28;8768;-70
2021/12/04 00:20:20;;;;;;;;;43.25;39.75;;;;;;;;5253119;28;8772;-70
2021/12/04 00:22:56;;;;;;;;;60.40;50.40;;;;;;;;5219711;28;8788;-69
2021/12/04 00:25:30;;;;;;;;;61.40;49.00;;;;;;;;5236505;28;8879;-70
2021/12/04 00:28:01;;;;;;;;;70.00;57.60;;;;;;;;5252524;28;8768;-70
2021/12/04 00:30:34;;;;;;;;;68.75;55.25;;;;;;;;5253276;28;8769;-66
2021/12/04 00:33:12;;;;;;;;;51.20;45.40;;;;;;;;5253294;28;8807;-67
2021/12/04 00:35:51;;;;;;;;;43.80;41.60;;;;;;;;5252871;28;8841;-68
2021/12/04 00:49:50;;;;;;;;;51.80;45.20;;;;;;;;5270899;28;8772;-68
2021/12/04 00:52:21;;;;;;;;;78.60;63.00;;;;;;;;5252753;28;8752;-68
2021/12/04 00:54:52;;;;;;;;;75.80;61.60;;;;;;;;5252655;28;8775;-68
2021/12/04 00:57:23;;;;;;;;;62.80;53.80;;;;;;;;5252680;28;8887;-68
2021/12/04 00:59:54;;;;;;;;;57.60;49.20;;;;;;;;5270412;28;8950;-69
2021/12/04 01:02:26;;;;;;;;;61.00;45.25;;;;;;;;5270238;28;8776;-68
2021/12/04 01:05:03;;;;;;;;;67.40;54.80;;;;;;;;5252684;28;11384;-68
2021/12/04 01:07:53;;;;;;;;;55.20;47.00;;;;;;;;5254886;28;8790;-69
2021/12/04 01:10:24;;;;;;;;;56.00;48.00;;;;;;;;5269549;28;8938;-68
2021/12/04 01:13:00;;;;;;;;;64.00;51.75;;;;;;;;5269862;28;8805;-68
2021/12/04 01:15:32;;;;;;;;;56.40;47.40;;;;;;;;5235449;28;8807;-69
2021/12/04 01:18:03;;;;;;;;;58.20;48.20;;;;;;;;5251670;28;8881;-69
2021/12/04 01:20:34;;;;;;;;;44.20;40.60;;;;;;;;5252086;28;8782;-68
2021/12/04 01:23:05;;;;;;;;;54.75;42.50;;;;;;;;5251656;28;8802;-68
2021/12/04 01:25:38;;;;;;;;;48.20;42.60;;;;;;;;5234974;28;9942;-69
2021/12/04 01:28:09;;;;;;;;;44.00;40.60;;;;;;;;5235501;28;8759;-69
2021/12/04 01:30:40;;;;;;;;;55.25;47.75;;;;;;;;5269679;28;8781;-67
2021/12/04 01:33:12;;;;;;;;;50.80;45.40;;;;;;;;5270065;28;8806;-67
2021/12/04 01:35:43;;;;;;;;;9.00;8.25;;;;;;;;5269755;28;8775;-68
2021/12/04 01:38:14;;;;;;;;;13.75;7.50;;;;;;;;5269332;28;8818;-67
2021/12/04 01:40:45;;;;;;;;;58.20;48.40;;;;;;;;5269715;28;11408;-67
2021/12/04 01:43:35;;;;;;;;;67.20;52.60;;;;;;;;5269749;28;8813;-67
2021/12/04 01:46:06;;;;;;;;;61.20;51.80;;;;;;;;5251239;28;8832;-67
2021/12/04 01:48:37;;;;;;;;;38.60;35.40;;;;;;;;5251341;28;8775;-68
2021/12/04 01:51:08;;;;;;;;;41.20;40.40;;;;;;;;5269260;28;8909;-68
2021/12/04 01:53:39;;;;;;;;;38.20;34.20;;;;;;;;5251056;28;8763;-68
2021/12/04 01:56:10;;;;;;;;;41.60;39.60;;;;;;;;5251060;28;8790;-68
2021/12/04 01:58:42;;;;;;;;;44.20;40.00;;;;;;;;5234537;28;8899;-67
2021/12/04 02:01:14;;;;;;;;;56.20;46.20;;;;;;;;5250963;28;8881;-67
2021/12/04 02:03:46;;;;;;;;;52.20;45.60;;;;;;;;5250997;28;8775;-67
2021/12/04 02:06:17;;;;;;;;;47.50;44.00;;;;;;;;5251038;28;8843;-67
2021/12/04 02:09:06;;;;;;;;;72.40;59.40;;;;;;;;5269320;28;11426;-67
2021/12/04 02:11:37;;;;;;;;;54.00;47.75;;;;;;;;5250962;28;8806;-67
2021/12/04 02:14:08;;;;;;;;;56.60;48.60;;;;;;;;5249550;28;8783;-67
2021/12/04 02:16:39;;;;;;;;;37.50;37.25;;;;;;;;5250800;28;8778;-68
2021/12/04 02:19:10;;;;;;;;;25.20;25.00;;;;;;;;5268982;28;9513;-68
2021/12/04 02:21:40;;;;;;;;;22.75;22.75;;;;;;;;5250624;28;8802;-68
2021/12/04 02:24:11;;;;;;;;;22.25;19.75;;;;;;;;5285143;28;8893;-68
2021/12/04 02:26:43;;;;;;;;;16.00;16.00;;;;;;;;5268932;28;8900;-68
2021/12/04 02:29:14;;;;;;;;;15.40;14.80;;;;;;;;5251057;28;11446;-68
2021/12/04 02:31:49;;;;;;;;;16.40;16.20;;;;;;;;5268762;28;8807;-68
2021/12/04 02:34:21;;;;;;;;;10.20;10.20;;;;;;;;5250319;28;8774;-68
2021/12/04 02:36:53;;;;;;;;;19.20;18.60;;;;;;;;5268228;28;8766;-68
2021/12/04 02:39:27;;;;;;;;;11.00;11.00;;;;;;;;5268222;28;8806;-67
2021/12/04 02:41:59;;;;;;;;;15.40;15.40;;;;;;;;5250713;28;8774;-68
2021/12/04 02:44:34;;;;;;;;;17.00;17.00;;;;;;;;5234152;28;8778;-69
2021/12/04 02:47:07;;;;;;;;;12.00;12.00;;;;;;;;5234419;28;8830;-69
2021/12/04 02:49:38;;;;;;;;;13.00;13.00;;;;;;;;5250522;28;8783;-69
2021/12/04 02:52:10;;;;;;;;;11.60;11.60;;;;;;;;5249918;28;8820;-67
2021/12/04 02:55:00;;;;;;;;;19.40;17.60;;;;;;;;5268532;28;8755;-67
2021/12/04 02:57:33;;;;;;;;;15.60;15.20;;;;;;;;5250632;28;8770;-67
2021/12/04 03:00:06;;;;;;;;;19.20;19.20;;;;;;;;5250158;28;8819;-67
2021/12/04 03:02:56;;;;;;;;;35.00;31.40;;;;;;;;5236421;28;8786;-68
2021/12/04 03:05:28;;;;;;;;;24.00;23.80;;;;;;;;5250282;28;8782;-67
2021/12/04 03:08:00;;;;;;;;;26.20;26.20;;;;;;;;5250316;28;8791;-68
2021/12/04 03:10:31;;;;;;;;;28.20;28.20;;;;;;;;5249985;28;8794;-68
2021/12/04 03:13:06;;;;;;;;;24.50;23.75;;;;;;;;5250519;28;8766;-67
2021/12/04 03:15:38;;;;;;;;;28.60;26.40;;;;;;;;5249976;28;8767;-67
2021/12/04 03:18:10;;;;;;;;;32.20;31.40;;;;;;;;5233403;28;8809;-68
2021/12/04 03:20:43;;;;;;;;;28.20;28.20;;;;;;;;5249441;28;8921;-67
2021/12/04 03:23:28;;;;;;;;;24.00;24.00;;;;;;;;5249710;28;8787;-66
2021/12/04 03:25:59;;;;;;;;;18.20;18.00;;;;;;;;5267448;28;8775;-66
2021/12/04 03:28:31;;;;;;;;;20.20;19.20;;;;;;;;5233095;28;8774;-66
2021/12/04 03:31:13;;;;;;;;;15.80;15.20;;;;;;;;5249624;28;8790;-66
2021/12/04 03:42:12;;;;;;;;;15.60;15.60;;;;;;;;5267805;28;8770;-66
2021/12/04 03:44:43;;;;;;;;;16.80;16.80;;;;;;;;5249468;28;8766;-67
2021/12/04 03:47:14;;;;;;;;;13.40;13.20;;;;;;;;5249682;28;8763;-68
2021/12/04 03:49:47;;;;;;;;;17.80;16.80;;;;;;;;5249229;28;8799;-68
2021/12/04 03:52:19;;;;;;;;;12.60;12.60;;;;;;;;5249587;28;8812;-67
2021/12/04 03:54:51;;;;;;;;;16.80;16.80;;;;;;;;5267798;28;8775;-67
2021/12/04 03:57:47;;;;;;;;;16.00;16.00;;;;;;;;5235568;28;9503;-67
2021/12/04 04:00:20;;;;;;;;;14.00;14.00;;;;;;;;5232490;28;8802;-67
2021/12/04 04:02:55;;;;;;;;;25.20;21.00;;;;;;;;5233001;28;8778;-67
2021/12/04 04:05:27;;;;;;;;;12.60;12.60;;;;;;;;5266901;28;8859;-67
2021/12/04 04:07:58;;;;;;;;;14.40;13.80;;;;;;;;5232439;28;8893;-67
2021/12/04 04:10:49;;;;;;;;;13.40;13.40;;;;;;;;5267265;28;8798;-67
2021/12/04 04:13:21;;;;;;;;;14.80;14.80;;;;;;;;5266434;28;8846;-68
2021/12/04 04:15:52;;;;;;;;;13.60;13.20;;;;;;;;5249240;28;8772;-67
2021/12/04 04:18:24;;;;;;;;;22.20;19.80;;;;;;;;5232853;28;8783;-68
2021/12/04 04:20:55;;;;;;;;;17.80;17.80;;;;;;;;5232318;28;8785;-67
2021/12/04 04:23:26;;;;;;;;;27.00;24.75;;;;;;;;5231966;28;8849;-68
2021/12/04 04:26:16;;;;;;;;;23.20;22.20;;;;;;;;5251887;28;8748;-69
2021/12/04 04:28:47;;;;;;;;;19.40;18.80;;;;;;;;5248966;28;8780;-68
2021/12/04 04:31:46;;;;;;;;;16.40;16.00;;;;;;;;5266537;28;8842;-68
2021/12/04 04:34:27;;;;;;;;;22.60;20.40;;;;;;;;5248996;28;8941;-68
2021/12/04 04:58:14;;;;;;;;;14.60;12.00;;;;;;;;5253262;28;8767;-67
2021/12/04 05:00:25;;;;;;;;;9.20;9.20;;;;;;;;5244006;28;8829;-69
2021/12/04 05:11:36;;;;;;;;;5.80;5.80;;;;;;;;5251898;28;8825;-68
2021/12/04 05:14:26;;;;;;;;;5.40;5.40;;;;;;;;5242541;28;9437;-69
2021/12/04 05:17:07;;;;;;;;;6.00;6.00;;;;;;;;5269888;28;8790;-69
2021/12/04 05:19:45;;;;;;;;;5.00;5.00;;;;;;;;5251485;28;9629;-74
2021/12/04 05:22:17;;;;;;;;;10.80;10.80;;;;;;;;5235923;28;8774;-66
2021/12/04 05:25:08;;;;;;;;;8.20;8.20;;;;;;;;5270004;28;9306;-67
2021/12/04 05:27:39;;;;;;;;;9.20;9.20;;;;;;;;5261466;28;8768;-66
2021/12/04 05:30:10;;;;;;;;;9.75;9.75;;;;;;;;5255647;28;8798;-66
2021/12/04 05:37:05;;;;;;;;;17.80;16.80;;;;;;;;5269358;28;11356;-65
2021/12/04 05:39:36;;;;;;;;;9.75;9.50;;;;;;;;5269552;28;8800;-66
2021/12/04 05:42:07;;;;;;;;;9.75;9.50;;;;;;;;5269501;28;8768;-67
2021/12/04 05:44:41;;;;;;;;;9.20;9.20;;;;;;;;5235019;28;11355;-67
2021/12/04 05:47:31;;;;;;;;;5.20;5.20;;;;;;;;5251406;28;8775;-65
2021/12/04 06:04:19;;;;;;;;;4.00;3.60;;;;;;;;5184231;28;8698;-67
2021/12/04 06:06:50;;;;;;;;;12.20;11.60;;;;;;;;5205230;28;8791;-68
2021/12/04 06:09:22;;;;;;;;;9.50;9.50;;;;;;;;5250892;28;8779;-66
2021/12/04 06:11:52;;;;;;;;;12.80;11.80;;;;;;;;5251943;28;8856;-67
2021/12/04 06:14:23;;;;;;;;;12.00;11.00;;;;;;;;5269780;28;8763;-67
2021/12/04 06:16:58;;;;;;;;;10.40;10.40;;;;;;;;5250517;28;8790;-66
2021/12/04 06:22:40;;;;;;;;;15.40;15.40;;;;;;;;5269115;28;8808;-66
2021/12/04 06:25:14;;;;;;;;;14.00;14.00;;;;;;;;5268413;28;8801;-67
2021/12/04 06:27:45;;;;;;;;;14.80;14.80;;;;;;;;5250597;28;8786;-66
2021/12/04 06:34:40;;;;;;;;;9.80;9.80;;;;;;;;5268403;28;8719;-66
2021/12/04 06:37:11;;;;;;;;;10.00;10.00;;;;;;;;5268293;28;8795;-67
2021/12/04 06:39:42;;;;;;;;;11.40;10.00;;;;;;;;5250130;28;8814;-67
2021/12/04 06:46:36;;;;;;;;;15.60;15.60;;;;;;;;5268134;28;8731;-67
2021/12/04 06:49:15;;;;;;;;;9.00;8.75;;;;;;;;5268315;28;8787;-67
2021/12/04 06:52:09;;;;;;;;;9.00;9.00;;;;;;;;5253080;28;8770;-67
2021/12/04 06:54:57;;;;;;;;;12.60;10.00;;;;;;;;5218322;28;8844;-67
2021/12/04 06:57:47;;;;;;;;;9.00;8.20;;;;;;;;5268634;28;8801;-68
2021/12/04 07:00:18;;;;;;;;;6.00;6.00;;;;;;;;5283480;28;8818;-68
2021/12/04 07:03:07;;;;;;;;;12.40;12.40;;;;;;;;5268313;28;8893;-68
2021/12/04 07:05:38;;;;;;;;;10.00;10.00;;;;;;;;5249710;28;8787;-67
2021/12/04 07:08:10;;;;;;;;;8.00;8.00;;;;;;;;5249683;28;8775;-67
2021/12/04 07:10:42;;;;;;;;;6.00;5.20;;;;;;;;5249568;28;8826;-67
2021/12/04 07:13:13;;;;;;;;;11.20;11.20;;;;;;;;5249959;28;8790;-67
2021/12/04 07:19:07;;;;;;;;;13.40;13.40;;;;;;;;5233094;28;8883;-67
2021/12/04 07:21:39;;;;;;;;;17.00;14.25;;;;;;;;5267393;28;8779;-67
2021/12/04 07:24:10;;;;;;;;;8.80;8.40;;;;;;;;5249323;28;9465;-67
2021/12/04 07:26:59;;;;;;;;;14.00;12.20;;;;;;;;5232804;28;8786;-67
2021/12/04 07:29:30;;;;;;;;;11.60;11.60;;;;;;;;5283379;28;9461;-68
2021/12/04 07:32:01;;;;;;;;;5.00;5.00;;;;;;;;5267756;28;8950;-68
2021/12/04 07:34:32;;;;;;;;;9.80;9.80;;;;;;;;5267495;28;8820;-68
2021/12/04 07:37:03;;;;;;;;;6.25;6.25;;;;;;;;5267132;28;8786;-68
2021/12/04 07:39:34;;;;;;;;;10.80;10.80;;;;;;;;5282365;28;11431;-68
2021/12/04 07:42:05;;;;;;;;;9.00;9.00;;;;;;;;5249134;28;8885;-69
2021/12/04 07:44:36;;;;;;;;;5.50;5.50;;;;;;;;5249067;28;8798;-67
2021/12/04 07:47:07;;;;;;;;;4.00;4.00;;;;;;;;5249383;28;8779;-67
2021/12/04 07:49:38;;;;;;;;;8.20;7.40;;;;;;;;5249537;28;11426;-66
2021/12/04 07:52:09;;;;;;;;;5.25;5.00;;;;;;;;5267298;28;8779;-66
2021/12/04 07:54:42;;;;;;;;;7.40;7.40;;;;;;;;5233113;28;9161;-67
2021/12/04 07:57:13;;;;;;;;;7.60;7.60;;;;;;;;5248998;28;8762;-67
2021/12/04 07:59:44;;;;;;;;;13.75;13.50;;;;;;;;5267572;28;9485;-67
2021/12/04 08:02:16;;;;;;;;;12.60;12.60;;;;;;;;5249144;28;9659;-67
2021/12/04 08:04:47;;;;;;;;;12.20;11.00;;;;;;;;5232431;28;8779;-66
2021/12/04 08:07:36;;;;;;;;;12.60;12.60;;;;;;;;5252802;28;8783;-63
2021/12/04 08:10:10;;;;;;;;;7.80;7.80;;;;;;;;5232081;28;8939;-63
2021/12/04 08:12:41;;;;;;;;;19.00;18.00;;;;;;;;5233669;28;8813;-63
2021/12/04 08:15:12;;;;;;;;;12.60;12.40;;;;;;;;5236382;28;8795;-62
2021/12/04 08:17:43;;;;;;;;;9.60;9.00;;;;;;;;5236696;28;8835;-63
2021/12/04 08:20:15;;;;;;;;;13.60;13.20;;;;;;;;5236080;28;8806;-66
2021/12/04 08:23:05;;;;;;;;;11.40;11.40;;;;;;;;5271058;28;9516;-64
2021/12/04 08:25:36;;;;;;;;;13.60;13.20;;;;;;;;5252708;28;8795;-63
2021/12/04 08:28:07;;;;;;;;;7.20;7.20;;;;;;;;5219783;28;8777;-64
2021/12/04 08:30:40;;;;;;;;;4.50;4.50;;;;;;;;5271348;28;9473;-63
2021/12/04 08:33:12;;;;;;;;;5.80;5.80;;;;;;;;5219606;28;8850;-64
2021/12/04 08:36:04;;;;;;;;;9.20;8.80;;;;;;;;5256116;28;8763;-63
2021/12/04 08:38:35;;;;;;;;;8.00;8.00;;;;;;;;5218077;28;8818;-63
2021/12/04 08:41:25;;;;;;;;;13.20;13.20;;;;;;;;5255647;28;8790;-64
2021/12/04 08:43:59;;;;;;;;;8.25;8.00;;;;;;;;5252562;28;8814;-65
2021/12/04 08:46:31;;;;;;;;;9.40;9.40;;;;;;;;5252588;28;10911;-65
2021/12/04 08:49:03;;;;;;;;;5.60;5.60;;;;;;;;5270430;28;8805;-65
2021/12/04 08:51:34;;;;;;;;;9.60;9.40;;;;;;;;5219251;28;8782;-65
2021/12/04 08:54:05;;;;;;;;;11.60;11.60;;;;;;;;5270527;28;8806;-65
2021/12/04 08:56:36;;;;;;;;;11.25;10.50;;;;;;;;5252413;28;8795;-65
2021/12/04 08:59:07;;;;;;;;;10.50;10.50;;;;;;;;5270226;28;11444;-65
2021/12/04 09:01:39;;;;;;;;;9.75;9.75;;;;;;;;5252292;28;8774;-65
2021/12/04 09:04:11;;;;;;;;;8.00;8.00;;;;;;;;5270466;28;8782;-65
2021/12/04 09:06:42;;;;;;;;;7.60;7.60;;;;;;;;5235517;28;8774;-65
2021/12/04 09:09:14;;;;;;;;;5.60;5.60;;;;;;;;5270307;28;8843;-65
2021/12/04 09:11:50;;;;;;;;;14.00;14.00;;;;;;;;5235273;28;9644;-65
2021/12/04 09:14:23;;;;;;;;;19.40;19.40;;;;;;;;5271313;28;8859;-65
2021/12/04 09:16:55;;;;;;;;;10.60;10.60;;;;;;;;5235216;28;8779;-64
2021/12/04 09:19:26;;;;;;;;;11.40;10.60;;;;;;;;5219407;28;8940;-64
2021/12/04 09:22:16;;;;;;;;;11.60;11.60;;;;;;;;5270215;28;8782;-64
2021/12/04 09:24:49;;;;;;;;;6.00;6.00;;;;;;;;5218000;28;8810;-64
2021/12/04 09:30:52;;;;;;;;;10.00;10.00;;;;;;;;5235029;28;8822;-64
2021/12/04 09:33:15;;;;;;;;;7.20;7.20;;;;;;;;5241324;28;8791;-64
2021/12/04 10:21:39;;;;;;;;;9.80;9.80;;;;;;;;5248335;28;8776;-65
2021/12/04 10:33:18;;;;;;;;;11.20;11.20;;;;;;;;5248601;28;8819;-65
2021/12/04 10:35:49;;;;;;;;;15.20;15.20;;;;;;;;5228991;28;8806;-65
2021/12/04 10:38:43;;;;;;;;;20.20;20.20;;;;;;;;5247008;28;8808;-65
2021/12/04 10:41:16;;;;;;;;;25.00;22.60;;;;;;;;5230251;28;8788;-65
2021/12/04 10:43:47;;;;;;;;;27.40;24.00;;;;;;;;5213041;28;8804;-65
2021/12/04 10:46:21;;;;;;;;;10.25;10.25;;;;;;;;5247931;28;9448;-65
2021/12/04 10:49:16;;;;;;;;;18.00;17.80;;;;;;;;5215659;28;8823;-65
2021/12/04 10:51:50;;;;;;;;;32.40;31.40;;;;;;;;5213091;28;8808;-64
2021/12/04 10:54:27;;;;;;;;;31.20;31.20;;;;;;;;5212678;28;8777;-64
2021/12/04 11:00:14;;;;;;;;;18.20;18.00;;;;;;;;5247157;28;8824;-65
2021/12/04 11:03:18;;;;;;;;;12.80;12.80;;;;;;;;5232160;28;8753;-64
2021/12/04 11:20:41;;;;;;;;;10.40;10.40;;;;;;;;5229024;28;8796;-63
2021/12/04 11:23:25;;;;;;;;;18.80;18.80;;;;;;;;5227383;28;9516;-64
2021/12/04 11:35:41;;;;;;;;;7.60;7.60;;;;;;;;5240444;28;8788;-64
2021/12/04 11:38:23;;;;;;;;;13.80;13.60;;;;;;;;5246081;28;8785;-63
2021/12/04 11:46:44;;;;;;;;;7.80;7.80;;;;;;;;5212129;28;9471;-64
2021/12/04 11:49:20;;;;;;;;;14.40;14.20;;;;;;;;5228907;28;8777;-64
2021/12/04 11:56:16;;;;;;;;;4.40;4.40;;;;;;;;5246281;28;9395;-64
2021/12/04 12:03:23;;;;;;;;;21.20;21.20;;;;;;;;5267285;28;8693;-64
2021/12/04 12:05:56;;;;;;;;;34.20;32.00;;;;;;;;5249159;28;8767;-64
2021/12/04 12:08:35;;;;;;;;;16.00;15.80;;;;;;;;5215679;28;8780;-64
2021/12/04 12:11:07;;;;;;;;;36.40;35.60;;;;;;;;5215800;28;8796;-64
2021/12/04 12:13:46;;;;;;;;;34.60;32.00;;;;;;;;5232281;28;8841;-64
2021/12/04 12:16:17;;;;;;;;;28.80;28.40;;;;;;;;5216267;28;8761;-64
2021/12/04 12:18:55;;;;;;;;;20.20;20.00;;;;;;;;5232504;28;8820;-64
2021/12/04 12:21:34;;;;;;;;;19.80;18.40;;;;;;;;5266925;28;8849;-64
2021/12/04 12:33:31;;;;;;;;;23.80;22.60;;;;;;;;5267463;28;8954;-64
2021/12/04 12:36:14;;;;;;;;;27.20;26.20;;;;;;;;5249733;28;8780;-63
2021/12/04 12:38:45;;;;;;;;;16.40;15.80;;;;;;;;5231816;28;8885;-64
2021/12/04 12:41:43;;;;;;;;;12.20;12.20;;;;;;;;5266881;28;8817;-64
2021/12/04 12:44:20;;;;;;;;;15.40;14.60;;;;;;;;5248932;28;8741;-64
2021/12/04 12:46:53;;;;;;;;;16.00;16.00;;;;;;;;5232104;28;8775;-64
2021/12/04 12:49:44;;;;;;;;;13.40;13.40;;;;;;;;5251673;28;9474;-64
2021/12/04 12:52:26;;;;;;;;;17.60;17.60;;;;;;;;5215338;28;8760;-64
2021/12/04 12:55:02;;;;;;;;;12.60;12.40;;;;;;;;5215915;28;8799;-65
2021/12/04 12:57:42;;;;;;;;;17.00;17.00;;;;;;;;5215367;28;8772;-64
2021/12/04 13:11:46;;;;;;;;;8.40;8.40;;;;;;;;5270883;28;8784;-64
2021/12/04 13:14:19;;;;;;;;;10.80;10.80;;;;;;;;5252787;28;8796;-64
2021/12/04 13:17:10;;;;;;;;;5.00;5.00;;;;;;;;5218641;28;8768;-64
2021/12/04 13:19:42;;;;;;;;;10.00;10.00;;;;;;;;5270425;28;8838;-64
2021/12/04 13:22:23;;;;;;;;;7.40;7.40;;;;;;;;5220418;28;8846;-64
2021/12/04 13:24:55;;;;;;;;;13.60;13.60;;;;;;;;5270210;28;8888;-63
2021/12/04 13:30:05;;;;;;;;;21.20;20.80;;;;;;;;5251727;28;8765;-63
2021/12/04 13:32:38;;;;;;;;;21.20;20.40;;;;;;;;5235001;28;8772;-63
2021/12/04 13:35:12;;;;;;;;;27.80;23.40;;;;;;;;5218326;28;8783;-64
2021/12/04 13:37:44;;;;;;;;;17.20;15.80;;;;;;;;5218100;28;9510;-63
2021/12/04 13:40:17;;;;;;;;;10.40;10.40;;;;;;;;5218219;28;8922;-64
2021/12/04 13:43:13;;;;;;;;;10.80;10.80;;;;;;;;5270035;28;8776;-64
2021/12/04 13:45:45;;;;;;;;;72.60;45.80;;;;;;;;5270135;28;8871;-64
2021/12/04 13:48:19;;;;;;;;;51.40;43.40;;;;;;;;5251690;28;9478;-64
2021/12/04 13:50:50;;;;;;;;;27.60;26.60;;;;;;;;5218211;28;8772;-64
2021/12/04 13:53:30;;;;;;;;;15.25;15.25;;;;;;;;5269663;28;8983;-64
2021/12/04 13:56:11;;;;;;;;;3.20;3.20;;;;;;;;5217915;28;8752;-63
2021/12/04 13:58:47;;;;;;;;;3.60;3.60;;;;;;;;5234915;28;8787;-63
2021/12/04 14:01:42;;;;;;;;;3.80;3.80;;;;;;;;5269911;28;8752;-63
2021/12/04 14:04:16;;;;;;;;;5.00;4.20;;;;;;;;5251586;28;8740;-63
2021/12/04 14:06:49;;;;;;;;;5.40;5.40;;;;;;;;5251459;28;8780;-64
2021/12/04 14:09:21;;;;;;;;;1.00;1.00;;;;;;;;5269547;28;8772;-63
2021/12/04 14:11:53;;;;;;;;;2.00;2.00;;;;;;;;5217497;28;8842;-63
2021/12/04 14:14:28;;;;;;;;;2.40;2.40;;;;;;;;5219106;28;8850;-64
2021/12/04 14:17:04;;;;;;;;;4.00;4.00;;;;;;;;5234165;28;8845;-64
2021/12/04 14:19:36;;;;;;;;;3.20;3.20;;;;;;;;5217815;28;8803;-64
2021/12/04 14:22:08;;;;;;;;;8.80;8.80;;;;;;;;5217329;28;9452;-63
2021/12/04 14:24:44;;;;;;;;;7.40;7.40;;;;;;;;5269290;28;8764;-63
2021/12/04 14:27:17;;;;;;;;;4.40;4.40;;;;;;;;5251353;28;8768;-63
2021/12/04 14:29:51;;;;;;;;;8.80;8.80;;;;;;;;5234042;28;8769;-63
2021/12/04 14:32:23;;;;;;;;;9.00;8.40;;;;;;;;5217728;28;9561;-62
2021/12/04 14:35:05;;;;;;;;;6.80;6.00;;;;;;;;5250307;28;8886;-63
2021/12/04 14:37:40;;;;;;;;;7.60;7.60;;;;;;;;5217617;28;8800;-63
2021/12/04 14:40:14;;;;;;;;;4.40;4.40;;;;;;;;5233281;28;8816;-63
2021/12/04 14:47:10;;;;;;;;;9.60;9.40;;;;;;;;5268463;28;8700;-64
2021/12/04 14:49:42;;;;;;;;;13.40;12.20;;;;;;;;5233777;28;8825;-64
2021/12/04 14:52:21;;;;;;;;;28.20;27.00;;;;;;;;5233237;28;8768;-64
2021/12/04 14:59:16;;;;;;;;;8.00;8.00;;;;;;;;5268169;28;8785;-64
2021/12/04 15:02:18;;;;;;;;;12.20;12.20;;;;;;;;5268311;28;8788;-64
2021/12/04 15:04:49;;;;;;;;;7.20;6.60;;;;;;;;5268033;28;8760;-64
2021/12/04 15:07:27;;;;;;;;;4.00;4.00;;;;;;;;5267807;28;8791;-63
2021/12/04 15:10:19;;;;;;;;;6.20;6.20;;;;;;;;5253105;28;8812;-64
2021/12/04 15:12:51;;;;;;;;;4.00;4.00;;;;;;;;5217222;28;9472;-63
2021/12/04 15:15:22;;;;;;;;;3.20;3.20;;;;;;;;5216399;28;8783;-64
2021/12/04 15:17:54;;;;;;;;;6.25;6.25;;;;;;;;5267393;28;9523;-64
2021/12/04 15:20:54;;;;;;;;;6.00;6.00;;;;;;;;5252644;28;8876;-62
2021/12/04 15:23:28;;;;;;;;;3.60;3.60;;;;;;;;5267338;28;8787;-64
2021/12/04 15:30:22;;;;;;;;;1.00;1.00;;;;;;;;5266731;28;9489;-63
2021/12/04 15:32:53;;;;;;;;;4.60;4.60;;;;;;;;5267978;28;8814;-63
2021/12/04 15:35:48;;;;;;;;;2.80;2.80;;;;;;;;5267459;28;8801;-64
2021/12/04 15:38:35;;;;;;;;;1.00;1.00;;;;;;;;5215967;28;8767;-63
2021/12/04 15:54:02;;;;;;;;;2.00;2.00;;;;;;;;5232757;28;8794;-64
2021/12/04 15:56:44;;;;;;;;;1.00;1.00;;;;;;;;5249960;28;8777;-64
2021/12/04 15:59:19;;;;;;;;;2.00;2.00;;;;;;;;5216647;28;9504;-64
2021/12/04 16:01:53;;;;;;;;;3.60;3.60;;;;;;;;5233189;28;8771;-63
2021/12/04 16:04:26;;;;;;;;;2.00;2.00;;;;;;;;5232380;28;8774;-63
2021/12/04 16:06:59;;;;;;;;;4.00;3.60;;;;;;;;5249256;28;8782;-63
2021/12/04 16:09:35;;;;;;;;;2.80;2.80;;;;;;;;5267441;28;8771;-62
2021/12/04 16:12:13;;;;;;;;;4.00;4.00;;;;;;;;5249602;28;8794;-63
2021/12/04 16:14:47;;;;;;;;;2.00;2.00;;;;;;;;5233279;28;9454;-62
2021/12/04 16:17:18;;;;;;;;;4.00;4.00;;;;;;;;5249347;28;8798;-63
2021/12/04 16:20:00;;;;;;;;;3.20;3.20;;;;;;;;5215851;28;8803;-63
2021/12/04 16:22:36;;;;;;;;;2.00;2.00;;;;;;;;5250104;28;8905;-63
2021/12/04 16:25:13;;;;;;;;;2.00;2.00;;;;;;;;5233206;28;8925;-63
2021/12/04 16:28:08;;;;;;;;;6.20;5.60;;;;;;;;5249044;28;8766;-63
2021/12/04 16:39:26;;;;;;;;;4.00;4.00;;;;;;;;5270743;28;9469;-64
2021/12/04 16:41:57;;;;;;;;;3.50;2.50;;;;;;;;5253295;28;8782;-64
2021/12/04 16:44:27;;;;;;;;;4.20;4.20;;;;;;;;5252443;28;8806;-63
2021/12/04 16:47:04;;;;;;;;;2.00;2.00;;;;;;;;5253049;28;9454;-63
2021/12/04 16:49:36;;;;;;;;;4.00;4.00;;;;;;;;5235928;28;9551;-63
2021/12/04 17:00:24;;;;;;;;;4.00;2.40;;;;;;;;5236261;28;8810;-62
2021/12/04 17:07:20;;;;;;;;;2.00;2.00;;;;;;;;5270162;28;8699;-63
2021/12/04 17:10:11;;;;;;;;;2.00;2.00;;;;;;;;5254930;28;8842;-64
2021/12/04 17:12:42;;;;;;;;;6.80;6.80;;;;;;;;5235837;28;8775;-65
2021/12/04 17:15:13;;;;;;;;;8.40;7.40;;;;;;;;5235298;28;9606;-63
2021/12/04 17:17:45;;;;;;;;;31.25;25.50;;;;;;;;5269808;28;8912;-63
2021/12/04 17:20:19;;;;;;;;;19.60;17.20;;;;;;;;5235104;28;11447;-62
2021/12/04 17:22:50;;;;;;;;;24.00;16.40;;;;;;;;5218807;28;8770;-62
2021/12/04 17:25:22;;;;;;;;;15.20;15.20;;;;;;;;5218401;28;8782;-63
2021/12/04 17:27:53;;;;;;;;;28.00;27.20;;;;;;;;5218389;28;9528;-63
2021/12/04 17:30:24;;;;;;;;;32.25;28.75;;;;;;;;5269538;28;8818;-63
2021/12/04 17:32:55;;;;;;;;;26.75;26.75;;;;;;;;5270064;28;11477;-63
2021/12/04 17:35:26;;;;;;;;;14.20;13.40;;;;;;;;5218652;28;8905;-63
2021/12/04 17:37:59;;;;;;;;;37.00;31.50;;;;;;;;5270387;28;8979;-63
2021/12/04 17:40:33;;;;;;;;;23.40;21.80;;;;;;;;5217853;28;8878;-63
2021/12/04 17:43:05;;;;;;;;;20.60;20.60;;;;;;;;5218723;28;9518;-63
2021/12/04 17:45:37;;;;;;;;;13.40;13.40;;;;;;;;5234037;28;8828;-64
2021/12/04 17:48:10;;;;;;;;;16.00;14.80;;;;;;;;5234609;28;8826;-64
2021/12/04 17:50:43;;;;;;;;;7.00;7.00;;;;;;;;5234878;28;8921;-64
2021/12/04 17:53:14;;;;;;;;;7.60;7.60;;;;;;;;5217969;28;8786;-63
2021/12/04 17:56:03;;;;;;;;;8.20;8.20;;;;;;;;5269443;28;8813;-64
2021/12/04 17:58:35;;;;;;;;;2.67;2.67;;;;;;;;5234404;28;8774;-63
2021/12/04 18:01:18;;;;;;;;;1.60;1.60;;;;;;;;5269563;28;9250;-64
2021/12/04 18:03:49;;;;;;;;;4.00;4.00;;;;;;;;5218165;28;9528;-63
2021/12/04 18:06:21;;;;;;;;;2.00;2.00;;;;;;;;5234396;28;9551;-63
2021/12/04 18:08:53;;;;;;;;;1.00;1.00;;;;;;;;5234750;28;8775;-63
2021/12/04 18:11:48;;;;;;;;;1.00;1.00;;;;;;;;5269104;28;8856;-63
2021/12/04 18:14:20;;;;;;;;;4.00;4.00;;;;;;;;5217989;28;8848;-63
2021/12/04 18:16:53;;;;;;;;;1.80;1.80;;;;;;;;5218039;28;8855;-63
2021/12/04 18:19:25;;;;;;;;;2.00;2.00;;;;;;;;5233977;28;8799;-63
2021/12/04 18:21:58;;;;;;;;;3.60;3.60;;;;;;;;5235106;28;8777;-65
2021/12/04 18:24:47;;;;;;;;;4.00;4.00;;;;;;;;5269170;28;8743;-63
2021/12/04 18:27:18;;;;;;;;;1.75;1.75;;;;;;;;5269052;28;8805;-62
2021/12/04 18:29:49;;;;;;;;;2.80;2.80;;;;;;;;5233970;28;11396;-63
2021/12/04 18:32:20;;;;;;;;;2.00;2.00;;;;;;;;5268798;28;8802;-63
2021/12/04 18:34:51;;;;;;;;;4.20;4.20;;;;;;;;5269074;28;11366;-63
2021/12/04 18:37:22;;;;;;;;;3.50;3.50;;;;;;;;5268205;28;8851;-63
2021/12/04 18:39:53;;;;;;;;;4.00;4.00;;;;;;;;5250647;28;11543;-63
2021/12/04 18:42:42;;;;;;;;;2.00;2.00;;;;;;;;5253410;28;12202;-62
2021/12/04 18:45:15;;;;;;;;;4.80;4.80;;;;;;;;5218032;28;8778;-63
2021/12/04 18:47:47;;;;;;;;;5.00;4.00;;;;;;;;5233874;28;8783;-62
2021/12/04 18:50:18;;;;;;;;;4.00;4.00;;;;;;;;5216711;28;8818;-63
2021/12/04 18:52:49;;;;;;;;;0.60;0.60;;;;;;;;5216852;28;8782;-64
2021/12/04 18:55:21;;;;;;;;;3.00;3.00;;;;;;;;5268265;28;8778;-64
2021/12/04 18:57:52;;;;;;;;;2.00;2.00;;;;;;;;5216162;28;8832;-64
2021/12/04 19:00:25;;;;;;;;;4.50;4.50;;;;;;;;5250448;28;8803;-63
2021/12/04 19:02:57;;;;;;;;;10.40;10.40;;;;;;;;5216482;28;11529;-64
2021/12/04 19:05:30;;;;;;;;;14.00;10.00;;;;;;;;5249688;28;9442;-64
2021/12/04 19:08:01;;;;;;;;;5.60;5.60;;;;;;;;5216544;28;8767;-64
2021/12/04 19:10:32;;;;;;;;;10.25;10.25;;;;;;;;5267618;28;8799;-64
2021/12/04 19:13:07;;;;;;;;;4.80;4.80;;;;;;;;5267570;28;10921;-64
2021/12/04 19:15:40;;;;;;;;;4.40;4.40;;;;;;;;5233434;28;8814;-64
2021/12/04 19:18:12;;;;;;;;;2.20;2.20;;;;;;;;5216790;28;8782;-64
2021/12/04 19:20:44;;;;;;;;;4.60;4.60;;;;;;;;5249605;28;8814;-64
2021/12/04 19:23:16;;;;;;;;;1.80;1.80;;;;;;;;5216450;28;8779;-63
2021/12/04 19:25:47;;;;;;;;;1.20;1.20;;;;;;;;5267939;28;8790;-63
2021/12/04 19:28:18;;;;;;;;;4.00;4.00;;;;;;;;5249676;28;8791;-64
2021/12/04 19:31:10;;;;;;;;;2.40;2.40;;;;;;;;5233296;28;8901;-63
2021/12/04 19:36:59;;;;;;;;;1.00;1.00;;;;;;;;5232732;28;8771;-63
2021/12/04 19:51:11;;;;;;;;;2.00;2.00;;;;;;;;5233120;28;8782;-64
2021/12/04 19:54:04;;;;;;;;;1.00;1.00;;;;;;;;5216306;28;8771;-64
2021/12/04 19:56:46;;;;;;;;;3.20;3.20;;;;;;;;5249466;28;8777;-63
2021/12/04 19:59:19;;;;;;;;;4.00;4.00;;;;;;;;5249541;28;8798;-64